Augusta Regional At Bush Field Augusta US
ICAO: KAGS
IATA: AGS
Category: Large
Scheduled Services: Yes

Elevation: 144 ft
TransAlt. 18000 ft.

Airport Communications:
APP/DEP:119.15
ATIS:132.75
CTAF:118.7
GND:121.9
TWR:118.7
UNICOM:122.95

KAGS Zoom In..

Runways:

(A) RW 08 length 6002 ft width 75 ft
---- / hdg 82

(B) RW 17 length 8001 ft width 150 ft
ILS 111.75 / hdg 172

(C) RW 26 length 6002 ft width 75 ft
---- / hdg 262

(D) RW 35 length 8001 ft width 150 ft
ILS 110.50 / hdg 352

Location; KAGS
Day. 23 / Time. 02.53 Zulu
* Altimeter: 29.77
* Temperature: 24° c. 75.2°f.
* Wind from: 040° Speed 05 kn.
Dewpoint: 22° c.
Visibility: 10 Statute Miles.
Clouds: Scattered 6000 ft.

KAGS 230253Z 04005KT 10SM SCT060 24/22 A2977 RMK AO2 SLP079 T02390217 51020


Wind From 040°
Speed 05 kn.

 
 
jpsmedia.com for Web Design worldairports.se 2018   terms of use